Time;durP1;ratioP1;P1;durP2;ratioP2;P2;SDS_P1;SDS_P2;PMS_P1;PMS_P2;Temp;Humidity;BMP_temperature;BMP_pressure;BME280_temperature;BME280_humidity;BME280_pressure;Samples;Min_cycle;Max_cycle;Signal;HPM_P1;HPM_P2
2021/08/20 00:01:11;;;;;;;43.80;29.50;;;;;;;14.80;100.00;101009.00;4980827;28;20070;-84
2021/08/20 00:03:36;;;;;;;45.90;29.17;;;;;;;14.81;100.00;101005.28;4984799;28;20049;-83
2021/08/20 00:06:02;;;;;;;44.33;29.92;;;;;;;14.82;100.00;101006.97;4959596;28;20038;-83
2021/08/20 00:08:27;;;;;;;45.83;30.85;;;;;;;14.83;100.00;101004.06;4984125;28;20069;-83
2021/08/20 00:10:53;;;;;;;47.70;30.58;;;;;;;14.82;100.00;101012.38;4983186;28;20129;-83
2021/08/20 00:13:18;;;;;;;47.58;32.42;;;;;;;14.79;100.00;101001.94;4983738;28;20499;-82
2021/08/20 00:15:45;;;;;;;51.60;31.10;;;;;;;14.77;100.00;101004.81;4982228;28;20146;-83
2021/08/20 00:18:12;;;;;;;46.55;31.38;;;;;;;14.81;100.00;101002.56;4980262;28;20042;-83
2021/08/20 00:20:37;;;;;;;46.58;30.40;;;;;;;14.84;100.00;101002.19;4985158;28;20233;-84
2021/08/20 00:23:03;;;;;;;45.53;31.40;;;;;;;14.86;100.00;101006.38;4981689;28;20046;-83
2021/08/20 00:25:28;;;;;;;50.15;31.15;;;;;;;14.85;100.00;101001.19;4977728;28;20082;-84
2021/08/20 00:27:54;;;;;;;43.95;31.60;;;;;;;14.88;100.00;100998.13;4982816;28;20049;-83
2021/08/20 00:30:19;;;;;;;44.38;31.90;;;;;;;14.85;100.00;100993.91;4980073;28;20096;-83
2021/08/20 00:32:44;;;;;;;46.45;32.00;;;;;;;14.85;100.00;101001.19;4976490;28;20035;-84
2021/08/20 00:35:10;;;;;;;45.40;31.83;;;;;;;14.86;100.00;101000.97;4976727;28;20165;-83
2021/08/20 00:37:35;;;;;;;49.03;32.75;;;;;;;14.87;100.00;100997.28;4980177;28;20042;-84
2021/08/20 00:40:03;;;;;;;47.50;31.48;;;;;;;14.85;100.00;100999.31;4980848;28;20038;-83
2021/08/20 00:42:29;;;;;;;44.83;30.58;;;;;;;14.84;100.00;100999.50;4981987;28;20038;-82
2021/08/20 00:44:54;;;;;;;49.53;31.00;;;;;;;14.83;100.00;101008.63;4977248;28;20100;-83
2021/08/20 00:47:20;;;;;;;47.08;32.67;;;;;;;14.83;100.00;101006.75;4939313;28;20140;-83
2021/08/20 00:49:46;;;;;;;49.13;30.70;;;;;;;14.84;100.00;101007.59;4976640;28;20046;-83
2021/08/20 00:52:11;;;;;;;47.78;31.65;;;;;;;14.84;100.00;100999.50;4979012;28;20042;-83
2021/08/20 00:54:37;;;;;;;47.70;31.35;;;;;;;14.85;100.00;101003.88;4982640;28;20089;-82
2021/08/20 00:57:03;;;;;;;48.15;32.70;;;;;;;14.82;100.00;100997.00;4990569;28;20046;-83
2021/08/20 00:59:29;;;;;;;48.38;32.47;;;;;;;14.81;100.00;100998.00;4980949;28;20731;-83
2021/08/20 01:01:54;;;;;;;47.10;31.80;;;;;;;14.80;100.00;100990.09;4980632;28;20042;-83
2021/08/20 01:04:20;;;;;;;47.85;32.10;;;;;;;14.78;100.00;100986.75;4978174;28;20491;-82
2021/08/20 01:06:45;;;;;;;47.30;31.67;;;;;;;14.77;100.00;100993.19;4964176;28;20089;-82
2021/08/20 01:09:11;;;;;;;47.83;30.52;;;;;;;14.74;100.00;100999.78;4947082;28;20047;-81
2021/08/20 01:11:37;;;;;;;49.25;31.60;;;;;;;14.71;100.00;100997.47;4964233;28;20273;-83
2021/08/20 01:14:04;;;;;;;48.30;32.28;;;;;;;14.68;100.00;100997.00;4961721;28;20046;-82
2021/08/20 01:16:31;;;;;;;48.55;31.02;;;;;;;14.65;100.00;100990.94;4962052;28;20051;-82
2021/08/20 01:18:56;;;;;;;48.35;33.25;;;;;;;14.63;100.00;100998.38;4924205;28;20129;-82
2021/08/20 01:21:24;;;;;;;46.90;30.15;;;;;;;14.60;100.00;100996.06;4959561;28;20042;-84
2021/08/20 01:23:58;;;;;;;47.58;32.50;;;;;;;14.58;100.00;100998.09;4977418;28;20046;-82
2021/08/20 01:26:25;;;;;;;49.03;32.42;;;;;;;14.58;100.00;100997.25;4963450;28;20054;-83
2021/08/20 01:28:50;;;;;;;50.13;31.92;;;;;;;14.57;100.00;100990.19;4963816;28;20043;-83
2021/08/20 01:31:16;;;;;;;49.47;32.10;;;;;;;14.54;100.00;100996.81;4975783;28;20058;-82
2021/08/20 01:33:43;;;;;;;51.75;35.00;;;;;;;14.53;100.00;100995.13;4963545;28;20045;-83
2021/08/20 01:36:09;;;;;;;52.22;33.13;;;;;;;14.53;100.00;100994.28;4962824;28;20047;-83
2021/08/20 01:38:48;;;;;;;49.47;33.45;;;;;;;14.50;100.00;100989.22;4964415;28;20579;-82
2021/08/20 01:41:14;;;;;;;48.20;32.50;;;;;;;14.48;100.00;100980.47;4978172;28;20178;-83
2021/08/20 01:43:40;;;;;;;52.83;35.25;;;;;;;14.43;100.00;100983.72;4960014;28;20046;-84
2021/08/20 01:46:06;;;;;;;55.13;33.28;;;;;;;14.40;100.00;100984.94;4963487;28;20101;-83
2021/08/20 01:48:31;;;;;;;54.45;32.65;;;;;;;14.41;100.00;100977.66;4963380;28;20081;-85
2021/08/20 01:50:56;;;;;;;53.53;32.75;;;;;;;14.39;100.00;100979.72;4954900;28;20122;-83
2021/08/20 01:53:22;;;;;;;54.25;34.20;;;;;;;14.39;100.00;100977.84;4981196;28;20701;-84
2021/08/20 01:55:49;;;;;;;51.88;32.35;;;;;;;14.37;100.00;100979.91;4963841;28;20078;-85
2021/08/20 01:58:14;;;;;;;51.15;33.17;;;;;;;14.36;100.00;100982.78;4965343;28;20062;-84
2021/08/20 02:00:40;;;;;;;50.33;31.48;;;;;;;14.35;100.00;100984.63;4965925;28;20412;-85
2021/08/20 02:03:06;;;;;;;52.17;32.42;;;;;;;14.36;100.00;100982.78;4965500;28;20035;-83
2021/08/20 02:05:33;;;;;;;50.13;33.45;;;;;;;14.33;100.00;100988.56;4949018;28;20540;-84
2021/08/20 02:07:58;;;;;;;51.30;32.95;;;;;;;14.28;100.00;100985.56;4950668;28;20038;-83
2021/08/20 02:10:24;;;;;;;49.92;32.78;;;;;;;14.29;100.00;100998.03;4948464;28;20039;-85
2021/08/20 02:12:50;;;;;;;48.05;32.25;;;;;;;14.27;100.00;100990.13;4965972;28;20485;-85
2021/08/20 02:15:15;;;;;;;50.40;34.85;;;;;;;14.26;100.00;100998.41;4957501;28;20211;-84
2021/08/20 02:17:41;;;;;;;52.17;33.90;;;;;;;14.23;100.00;101000.44;4983256;28;20233;-84
2021/08/20 02:20:07;;;;;;;51.80;32.92;;;;;;;14.25;100.00;100996.75;5000140;28;20047;-84
2021/08/20 02:22:32;;;;;;;50.25;33.03;;;;;;;14.21;100.00;101002.50;4981290;28;20381;-83
2021/08/20 02:24:57;;;;;;;45.95;31.70;;;;;;;14.19;100.00;100999.16;4987856;28;20053;-85
2021/08/20 02:27:23;;;;;;;51.95;32.60;;;;;;;14.17;100.00;100995.78;4999653;28;20042;-84
2021/08/20 02:29:49;;;;;;;50.63;31.08;;;;;;;14.18;100.00;100997.47;4986132;28;20062;-83
2021/08/20 02:32:14;;;;;;;51.08;32.08;;;;;;;14.18;100.00;100992.06;4982430;28;20042;-84
2021/08/20 02:34:40;;;;;;;49.05;30.95;;;;;;;14.16;100.00;100993.28;4984864;28;20034;-82
2021/08/20 02:37:05;;;;;;;49.55;31.88;;;;;;;14.13;100.00;100990.94;4980675;28;20041;-83
2021/08/20 02:39:33;;;;;;;51.03;33.47;;;;;;;14.14;100.00;100995.31;4967609;28;20039;-84
2021/08/20 02:41:59;;;;;;;52.42;33.35;;;;;;;14.11;100.00;100991.13;4978703;28;20510;-84
2021/08/20 02:44:24;;;;;;;50.97;32.20;;;;;;;14.06;100.00;100989.97;4974258;28;20061;-83
2021/08/20 02:46:50;;;;;;;51.58;34.30;;;;;;;14.07;100.00;100994.34;4985333;28;20042;-83
2021/08/20 02:49:15;;;;;;;54.30;32.70;;;;;;;14.03;100.00;100987.66;4980860;28;20039;-82
2021/08/20 02:51:41;;;;;;;51.85;32.83;;;;;;;13.99;100.00;100993.41;4973409;28;20109;-83
2021/08/20 02:54:06;;;;;;;53.00;32.30;;;;;;;13.99;100.00;100995.28;4978484;28;20042;-85
2021/08/20 02:56:31;;;;;;;50.88;31.90;;;;;;;13.94;100.00;101003.06;4982985;28;20057;-83
2021/08/20 02:58:57;;;;;;;49.28;29.75;;;;;;;13.92;100.00;100992.44;4998780;28;20078;-82
2021/08/20 03:01:22;;;;;;;51.80;33.67;;;;;;;13.94;100.00;100994.97;4999113;28;20054;-84
2021/08/20 03:03:48;;;;;;;52.08;33.00;;;;;;;13.93;100.00;100987.91;4984252;28;20121;-86
2021/08/20 03:06:15;;;;;;;48.63;32.00;;;;;;;13.91;100.00;100992.66;4972403;28;20047;-83
2021/08/20 03:08:40;;;;;;;55.85;32.63;;;;;;;13.92;100.00;100997.00;4983293;28;20042;-83
2021/08/20 03:11:06;;;;;;;51.25;31.65;;;;;;;13.87;100.00;100994.88;4983946;28;20046;-85
2021/08/20 03:13:31;;;;;;;50.78;31.35;;;;;;;13.86;100.00;100997.75;4982436;28;20601;-85
2021/08/20 03:15:57;;;;;;;54.38;32.22;;;;;;;13.83;100.00;100998.94;4999181;28;20503;-83
2021/08/20 03:18:22;;;;;;;51.00;31.92;;;;;;;13.83;100.00;100998.94;4970441;28;20042;-85
2021/08/20 03:20:49;;;;;;;48.03;32.20;;;;;;;13.77;100.00;100991.56;4982312;28;20244;-83
2021/08/20 03:23:16;;;;;;;51.22;31.42;;;;;;;13.75;100.00;101002.56;4982654;28;20526;-85
2021/08/20 03:25:41;;;;;;;50.42;31.48;;;;;;;13.72;100.00;101002.03;4984497;28;20054;-85
2021/08/20 03:28:07;;;;;;;53.58;32.40;;;;;;;13.69;100.00;100997.00;4982221;28;20072;-84
2021/08/20 03:30:34;;;;;;;57.20;34.47;;;;;;;13.67;100.00;100999.91;4982207;28;20047;-84
2021/08/20 03:33:01;;;;;;;51.88;32.33;;;;;;;13.65;100.00;101001.94;4983569;28;20092;-82
2021/08/20 03:35:27;;;;;;;49.58;30.33;;;;;;;13.61;100.00;101005.16;4984532;28;20504;-84
2021/08/20 03:37:53;;;;;;;56.10;32.35;;;;;;;13.56;100.00;101003.03;4983586;28;20173;-84
2021/08/20 03:40:18;;;;;;;56.10;32.60;;;;;;;13.54;100.00;101005.03;4997808;28;20128;-83
2021/08/20 03:42:44;;;;;;;53.40;33.28;;;;;;;13.53;100.00;101016.84;4984692;28;20567;-84
2021/08/20 03:45:11;;;;;;;53.17;31.90;;;;;;;13.53;100.00;101009.59;4966717;28;20673;-84
2021/08/20 03:47:37;;;;;;;52.25;30.90;;;;;;;13.48;100.00;101006.59;4985974;28;20323;-83
2021/08/20 03:50:03;;;;;;;49.22;30.40;;;;;;;13.49;100.00;101007.44;4983381;28;20070;-83
2021/08/20 03:52:29;;;;;;;51.08;31.33;;;;;;;13.47;100.00;101004.94;4983732;28;20050;-84
2021/08/20 03:54:54;;;;;;;49.25;31.95;;;;;;;13.50;100.00;101001.03;4984273;28;20381;-83
2021/08/20 03:57:19;;;;;;;47.38;29.92;;;;;;;13.47;100.00;101004.94;4983322;28;20069;-84
2021/08/20 03:59:45;;;;;;;50.58;30.35;;;;;;;13.48;100.00;101005.75;4983111;28;20488;-82
2021/08/20 04:02:10;;;;;;;49.55;30.33;;;;;;;13.47;100.00;101002.22;4982739;28;20502;-83
2021/08/20 04:04:36;;;;;;;50.88;32.55;;;;;;;13.46;100.00;101002.41;4981664;28;20047;-83
2021/08/20 04:07:02;;;;;;;52.80;32.20;;;;;;;13.45;100.00;101003.41;4983270;28;20491;-83
2021/08/20 04:09:28;;;;;;;52.00;30.85;;;;;;;13.45;100.00;101008.81;4981069;28;20097;-83
2021/08/20 04:11:53;;;;;;;55.25;34.15;;;;;;;13.42;100.00;101011.88;4981044;28;20043;-83
2021/08/20 04:14:19;;;;;;;57.25;32.92;;;;;;;13.43;100.00;101016.22;4998301;28;20394;-84
2021/08/20 04:16:44;;;;;;;55.08;30.75;;;;;;;13.43;100.00;101019.75;4981149;28;20070;-85
2021/08/20 04:19:09;;;;;;;55.90;33.15;;;;;;;13.44;100.00;101021.47;4982733;28;20080;-84
2021/08/20 04:21:35;;;;;;;54.95;32.95;;;;;;;13.46;100.00;101024.78;4976636;28;20073;-84
2021/08/20 04:24:00;;;;;;;55.92;32.38;;;;;;;13.46;100.00;101032.03;4978590;28;20046;-84
2021/08/20 04:26:27;;;;;;;54.20;33.75;;;;;;;13.45;100.00;101028.50;4965135;28;20398;-84
2021/08/20 04:28:52;;;;;;;52.13;31.20;;;;;;;13.46;100.00;101032.03;4964210;28;20503;-84
2021/08/20 04:31:18;;;;;;;55.28;31.95;;;;;;;13.45;100.00;101027.69;4961989;28;20051;-84
2021/08/20 04:33:44;;;;;;;53.40;31.42;;;;;;;13.46;100.00;101032.03;4962640;28;20042;-82
2021/08/20 04:36:11;;;;;;;53.58;32.33;;;;;;;13.46;100.00;101024.78;4943946;28;20559;-83
2021/08/20 04:38:38;;;;;;;53.55;32.08;;;;;;;13.51;100.00;101037.75;4962446;28;20263;-84
2021/08/20 04:41:04;;;;;;;52.38;31.38;;;;;;;13.50;100.00;101030.69;4963188;28;20139;-83
2021/08/20 04:43:30;;;;;;;51.90;33.05;;;;;;;13.47;100.00;101031.88;4963301;28;20141;-83
2021/08/20 04:45:56;;;;;;;49.88;31.10;;;;;;;13.50;100.00;101036.09;4978453;28;20226;-82
2021/08/20 04:48:22;;;;;;;53.33;32.88;;;;;;;13.51;100.00;101035.88;4964227;28;20544;-83
2021/08/20 04:50:51;;;;;;;53.30;31.23;;;;;;;13.54;100.00;101042.78;4964013;28;20050;-83
2021/08/20 04:53:16;;;;;;;;;;;;;;;13.54;100.00;101042.78;4959676;28;20043;-83
2021/08/20 04:55:42;;;;;;;57.90;33.38;;;;;;;13.51;100.00;101038.59;4964960;28;19918;-83
2021/08/20 04:58:07;;;;;;;52.55;34.40;;;;;;;13.56;100.00;101048.84;4954834;28;20031;-83
2021/08/20 05:00:34;;;;;;;52.88;33.63;;;;;;;13.59;100.00;101045.81;4961830;28;20045;-83
2021/08/20 05:02:59;;;;;;;54.72;33.38;;;;;;;13.62;100.00;101045.44;4959969;28;20117;-82
2021/08/20 05:05:24;;;;;;;48.00;30.83;;;;;;;13.62;100.00;101050.00;4960784;28;20594;-83
2021/08/20 05:07:50;;;;;;;48.00;31.85;;;;;;;13.64;100.00;101051.50;4964780;28;20041;-83
2021/08/20 05:10:15;;;;;;;56.95;34.08;;;;;;;13.69;100.00;101056.34;4946425;28;20114;-83
2021/08/20 05:12:42;;;;;;;53.05;33.28;;;;;;;13.73;100.00;101050.44;4963188;28;20078;-82
2021/08/20 05:15:08;;;;;;;54.08;31.02;;;;;;;13.75;100.00;101058.31;4957877;28;20043;-82
2021/08/20 05:17:58;;;;;;;54.65;31.73;;;;;;;13.74;100.00;101060.19;4941104;28;20051;-82
2021/08/20 05:20:24;;;;;;;52.38;33.28;;;;;;;13.79;100.00;101062.38;4967408;28;20738;-83
2021/08/20 05:22:53;;;;;;;56.70;32.78;;;;;;;13.83;100.00;101062.84;4982108;28;20057;-82
2021/08/20 05:25:20;;;;;;;51.10;31.45;;;;;;;13.87;100.00;101067.72;4967801;28;20038;-83
2021/08/20 05:27:46;;;;;;;52.17;34.58;;;;;;;13.91;100.00;101074.41;4986417;28;20057;-83
2021/08/20 05:30:13;;;;;;;53.97;31.15;;;;;;;13.94;100.00;101065.94;4973712;28;20038;-84
2021/08/20 05:32:38;;;;;;;51.50;31.30;;;;;;;13.98;100.00;101061.03;4987622;28;20141;-83
2021/08/20 05:35:06;;;;;;;51.22;33.00;;;;;;;13.98;100.00;101067.28;4986219;28;20157;-84
2021/08/20 05:37:31;;;;;;;53.42;33.90;;;;;;;14.03;100.00;101049.72;5000069;28;20058;-83
2021/08/20 05:39:57;;;;;;;53.08;33.08;;;;;;;14.06;100.00;101050.19;4985749;28;20053;-83
2021/08/20 05:42:22;;;;;;;51.17;30.88;;;;;;;14.09;100.00;101060.63;4968719;28;20042;-83
2021/08/20 05:44:47;;;;;;;54.92;32.80;;;;;;;14.15;100.00;101057.19;4969793;28;20046;-83
2021/08/20 05:47:13;;;;;;;57.55;35.65;;;;;;;14.22;100.00;101058.16;4985388;28;20043;-83
2021/08/20 05:49:38;;;;;;;53.13;33.88;;;;;;;14.28;100.00;101062.00;4968237;28;20062;-83
2021/08/20 05:52:04;;;;;;;56.05;33.28;;;;;;;14.29;100.00;101065.53;4985915;28;20042;-83
2021/08/20 05:54:29;;;;;;;57.83;34.50;;;;;;;14.32;100.00;101068.69;4984864;28;20038;-84
2021/08/20 05:56:55;;;;;;;56.25;32.75;;;;;;;14.33;100.00;101066.84;4987706;28;20054;-83
2021/08/20 05:59:21;;;;;;;59.08;32.22;;;;;;;14.33;100.00;101073.09;4966749;28;20050;-83
2021/08/20 06:01:46;;;;;;;59.58;34.60;;;;;;;14.35;100.00;101078.28;4969560;28;20097;-85
2021/08/20 06:04:12;;;;;;;57.67;34.60;;;;;;;14.38;100.00;101088.72;4988726;28;20658;-82
2021/08/20 06:06:38;;;;;;;60.35;34.22;;;;;;;14.38;100.00;101089.56;4966408;28;20177;-82
2021/08/20 06:09:05;;;;;;;60.45;33.55;;;;;;;14.40;100.00;101087.53;4982864;28;20349;-84
2021/08/20 06:11:31;;;;;;;62.90;32.72;;;;;;;14.36;100.00;101096.19;4975645;28;20043;-82
2021/08/20 06:13:56;;;;;;;61.00;33.95;;;;;;;14.39;100.00;101093.94;4965173;28;20062;-82
2021/08/20 06:16:22;;;;;;;65.47;34.35;;;;;;;14.40;100.00;101089.38;4952907;28;20061;-82
2021/08/20 06:18:48;;;;;;;73.38;37.40;;;;;;;14.44;100.00;101088.84;4967530;28;20047;-82
2021/08/20 06:21:13;;;;;;;71.43;35.35;;;;;;;14.45;100.00;101084.28;4964776;28;20506;-84
2021/08/20 06:23:39;;;;;;;86.13;40.30;;;;;;;14.47;100.00;101087.63;4984460;28;20057;-83
2021/08/20 06:26:04;;;;;;;90.05;39.60;;;;;;;14.47;100.00;101087.63;4986329;28;20050;-84
2021/08/20 06:28:31;;;;;;;91.13;42.75;;;;;;;14.49;100.00;101082.88;4967683;28;20150;-83
2021/08/20 06:31:02;;;;;;;90.82;39.83;;;;;;;14.51;100.00;101078.16;4986164;28;20034;-83
2021/08/20 06:33:27;;;;;;;84.68;42.50;;;;;;;14.57;100.00;101074.75;4985122;28;20150;-83
2021/08/20 06:35:53;;;;;;;93.03;42.58;;;;;;;14.55;100.00;101076.78;4986251;28;20618;-82
2021/08/20 06:38:18;;;;;;;107.97;44.42;;;;;;;14.57;100.00;101082.00;4998929;28;20046;-84
2021/08/20 06:40:43;;;;;;;96.70;45.08;;;;;;;14.60;100.00;101081.63;4984853;28;20077;-83
2021/08/20 06:43:09;;;;;;;90.97;42.47;;;;;;;14.61;100.00;101077.91;4986273;28;20038;-84
2021/08/20 06:45:34;;;;;;;104.00;43.25;;;;;;;14.66;100.00;101086.31;4985215;28;20042;-84
2021/08/20 06:47:59;;;;;;;100.22;45.55;;;;;;;14.68;100.00;101086.97;4963627;28;20161;-84
2021/08/20 06:50:25;;;;;;;95.30;43.95;;;;;;;14.74;100.00;101088.09;4962992;28;20051;-83
2021/08/20 06:52:50;;;;;;;99.65;41.63;;;;;;;14.73;100.00;101084.56;4965015;28;20265;-83
2021/08/20 06:55:15;;;;;;;102.50;44.72;;;;;;;14.72;100.00;101090.13;4964580;28;20403;-83
2021/08/20 06:57:41;;;;;;;98.75;44.80;;;;;;;14.77;100.00;101096.66;4965406;28;20077;-84
2021/08/20 07:00:07;;;;;;;91.38;40.38;;;;;;;14.81;100.00;101094.44;4952367;28;20042;-84
2021/08/20 07:02:40;;;;;;;93.03;42.65;;;;;;;14.81;100.00;101097.13;4962685;28;20133;-84
2021/08/20 07:05:06;;;;;;;92.35;42.42;;;;;;;14.85;100.00;101096.59;4960361;28;20044;-83
2021/08/20 07:07:33;;;;;;;91.05;41.63;;;;;;;14.87;100.00;101093.69;4963705;28;20038;-83
2021/08/20 07:09:59;;;;;;;101.82;43.25;;;;;;;14.89;100.00;101091.63;4952492;28;20098;-82
2021/08/20 07:12:25;;;;;;;95.72;41.40;;;;;;;14.92;100.00;101099.38;4963680;28;20051;-84
2021/08/20 07:14:50;;;;;;;96.38;45.13;;;;;;;14.92;100.00;101096.69;4964806;28;20189;-83
2021/08/20 07:17:16;;;;;;;94.90;40.65;;;;;;;14.97;100.00;101098.84;4939805;28;20089;-83
2021/08/20 07:19:41;;;;;;;98.38;42.60;;;;;;;14.99;100.00;101111.13;4968449;28;20066;-83
2021/08/20 07:22:06;;;;;;;91.95;40.90;;;;;;;14.98;100.00;101108.59;4983376;28;20054;-84
2021/08/20 07:24:32;;;;;;;94.00;41.90;;;;;;;15.01;100.00;101111.78;4980842;28;20070;-84
2021/08/20 07:26:57;;;;;;;96.07;43.95;;;;;;;15.06;100.00;101108.53;4967451;28;20450;-83
2021/08/20 07:29:22;;;;;;;89.55;44.65;;;;;;;15.08;100.00;101115.41;4983462;28;20046;-85
2021/08/20 07:31:48;;;;;;;97.50;45.03;;;;;;;15.13;100.00;101114.84;4985202;28;20044;-84
2021/08/20 07:34:13;;;;;;;101.15;42.50;;;;;;;15.09;100.00;101111.69;4983946;28;20518;-84
2021/08/20 07:36:39;;;;;;;105.03;42.28;;;;;;;15.11;100.00;101116.91;4999212;28;20046;-83
2021/08/20 07:39:04;;;;;;;101.45;44.17;;;;;;;15.15;100.00;101111.97;4976565;28;20518;-83
2021/08/20 07:41:29;;;;;;;98.15;42.90;;;;;;;15.19;100.00;101108.72;4997926;28;20281;-84
2021/08/20 07:43:55;;;;;;;93.63;42.55;;;;;;;15.22;100.00;101110.19;4968572;28;20483;-85
2021/08/20 07:46:20;;;;;;;101.07;45.72;;;;;;;15.21;100.00;101106.66;4984557;28;20104;-83
2021/08/20 07:48:45;;;;;;;95.05;44.25;;;;;;;15.25;100.00;101112.53;4985420;28;20177;-84
2021/08/20 07:51:11;;;;;;;95.57;41.72;;;;;;;15.28;100.00;101117.56;4981213;28;20097;-84
2021/08/20 07:53:36;;;;;;;97.53;44.78;;;;;;;15.28;100.00;101109.47;4998968;28;20260;-85
2021/08/20 07:56:01;;;;;;;89.20;44.15;;;;;;;15.27;100.00;101108.59;4983944;28;20109;-84
2021/08/20 07:58:27;;;;;;;93.90;41.83;;;;;;;15.33;100.00;101112.41;4983446;28;20287;-85
2021/08/20 08:00:52;;;;;;;96.95;44.75;;;;;;;15.40;100.00;101112.53;4985042;28;20050;-83
2021/08/20 08:03:17;;;;;;;92.50;43.67;;;;;;;15.44;100.00;101117.34;4964686;28;20154;-82
2021/08/20 08:05:43;;;;;;;84.55;39.13;;;;;;;15.45;100.00;101129.88;4985015;28;20144;-84
2021/08/20 08:08:08;;;;;;;83.10;41.13;;;;;;;15.44;100.00;101120.06;4981662;28;20046;-83
2021/08/20 08:10:35;;;;;;;83.22;40.95;;;;;;;15.51;100.00;101117.47;4984926;28;20137;-84
2021/08/20 08:13:01;;;;;;;84.88;39.78;;;;;;;15.57;100.00;101131.06;4985485;28;20046;-83
2021/08/20 08:15:26;;;;;;;71.72;37.20;;;;;;;15.60;100.00;101135.25;4984720;28;20045;-85
2021/08/20 08:17:52;;;;;;;79.70;39.55;;;;;;;15.65;100.00;101134.66;4983016;28;20046;-84
2021/08/20 08:20:19;;;;;;;75.43;38.63;;;;;;;15.74;100.00;101139.00;4992729;28;22004;-84
2021/08/20 08:22:44;;;;;;;71.65;37.08;;;;;;;15.79;100.00;101142.81;4988648;28;20050;-85
2021/08/20 08:25:11;;;;;;;73.53;36.63;;;;;;;15.85;100.00;101140.34;4984658;28;20054;-86
2021/08/20 08:27:51;;;;;;;69.07;37.03;;;;;;;15.96;100.00;101142.56;4965595;28;20074;-83
2021/08/20 08:30:17;;;;;;;69.15;37.10;;;;;;;16.02;100.00;101134.53;4979916;28;20442;-83
2021/08/20 08:32:42;;;;;;;64.20;36.33;;;;;;;16.15;100.00;101151.94;4962750;28;20538;-82
2021/08/20 08:35:08;;;;;;;60.90;36.53;;;;;;;16.27;100.00;101150.41;4972271;28;20062;-84
2021/08/20 08:37:33;;;;;;;61.13;32.90;;;;;;;16.31;100.00;101150.84;4978870;28;20069;-83
2021/08/20 08:39:59;;;;;;;61.85;33.80;;;;;;;16.38;100.00;101149.06;4984987;28;20137;-84
2021/08/20 08:42:24;;;;;;;57.30;34.13;;;;;;;16.45;100.00;101142.63;4983600;28;20536;-85
2021/08/20 08:44:51;;;;;;;50.28;30.67;;;;;;;16.53;100.00;101151.69;4981967;28;20046;-86
2021/08/20 08:47:18;;;;;;;47.72;30.45;;;;;;;16.58;100.00;101152.78;4984721;28;20042;-85
2021/08/20 08:49:46;;;;;;;48.17;29.27;;;;;;;16.58;100.00;101151.94;4982851;28;20506;-85
2021/08/20 08:52:11;;;;;;;40.08;27.65;;;;;;;16.63;100.00;101147.63;4983907;28;20258;-85
2021/08/20 08:54:37;;;;;;;40.97;28.00;;;;;;;16.61;100.00;101148.84;4981732;28;20038;-83
2021/08/20 08:57:02;;;;;;;42.22;28.25;;;;;;;16.64;100.00;101140.31;4984397;28;20038;-84
2021/08/20 08:59:28;;;;;;;39.65;27.42;;;;;;;16.68;100.00;101147.00;4976952;28;20137;-84
2021/08/20 09:01:55;;;;;;;42.45;26.92;;;;;;;16.74;100.00;101150.81;4985287;28;20096;-83
2021/08/20 09:04:24;;;;;;;39.63;24.67;;;;;;;16.74;100.00;101146.22;4985777;28;20137;-85
2021/08/20 09:06:54;;;;;;;38.20;26.55;;;;;;;16.80;100.00;101150.91;4988511;28;20062;-85
2021/08/20 09:09:22;;;;;;;38.50;25.50;;;;;;;16.86;100.00;101155.56;4984934;28;20096;-84
2021/08/20 09:11:55;;;;;;;34.92;24.45;;;;;;;16.92;100.00;101154.75;4979890;28;20070;-84
2021/08/20 09:14:29;;;;;;;37.03;25.02;;;;;;;16.95;100.00;101147.28;4950796;28;20058;-83
2021/08/20 09:16:55;;;;;;;35.80;24.95;;;;;;;17.03;100.00;101157.94;4968759;28;20113;-86
2021/08/20 09:19:22;;;;;;;33.97;23.50;;;;;;;17.05;100.00;101153.16;4965222;28;20072;-84
2021/08/20 09:21:56;;;;;;;33.58;23.98;;;;;;;17.05;100.00;101156.72;4966254;28;20039;-86
2021/08/20 09:24:39;;;;;;;34.05;23.25;;;;;;;17.17;100.00;101148.84;4965635;28;20153;-86
2021/08/20 09:27:13;;;;;;;32.80;22.95;;;;;;;17.31;100.00;101152.50;4966006;28;20062;-84
2021/08/20 09:29:39;;;;;;;32.28;21.63;;;;;;;17.34;100.00;101152.94;4982815;28;20516;-83
2021/08/20 09:32:04;;;;;;;30.77;21.42;;;;;;;17.37;100.00;101157.13;4947954;28;20118;-83
2021/08/20 09:34:32;;;;;;;32.00;22.40;;;;;;;17.50;100.00;101156.38;4961762;28;20035;-84
2021/08/20 09:37:12;;;;;;;27.27;19.88;;;;;;;17.63;100.00;101155.56;4964284;28;20043;-83
2021/08/20 09:39:45;;;;;;;27.98;20.23;;;;;;;17.75;100.00;101149.38;4985954;28;20551;-85
2021/08/20 09:42:13;;;;;;;24.92;19.17;;;;;;;17.80;100.00;101163.19;4984739;28;20081;-84
2021/08/20 09:44:39;;;;;;;22.65;17.75;;;;;;;17.87;100.00;101154.28;4984124;28;20082;-84
2021/08/20 09:47:05;;;;;;;22.10;16.33;;;;;;;17.96;100.00;101153.88;4969638;28;20720;-83
2021/08/20 09:49:31;;;;;;;21.35;15.75;;;;;;;18.10;100.00;101152.03;4983876;28;20050;-85
2021/08/20 09:51:58;;;;;;;18.75;15.38;;;;;;;18.27;100.00;101156.03;4984757;28;20041;-84
2021/08/20 09:54:26;;;;;;;18.35;14.05;;;;;;;18.38;100.00;101149.13;4986162;28;20447;-84
2021/08/20 09:56:53;;;;;;;17.67;14.60;;;;;;;18.36;98.37;101144.97;4998541;28;20385;-84
2021/08/20 09:59:18;;;;;;;19.15;14.50;;;;;;;18.51;99.81;101147.50;4979385;28;20042;-83
2021/08/20 10:01:46;;;;;;;17.15;14.98;;;;;;;18.65;100.00;101152.72;4969356;28;20041;-85
2021/08/20 10:04:16;;;;;;;17.20;13.80;;;;;;;18.87;99.26;101158.84;4984591;28;20046;-83
2021/08/20 10:06:43;;;;;;;17.52;12.05;;;;;;;18.81;93.48;101159.66;4984419;28;20042;-84
2021/08/20 10:09:13;;;;;;;15.52;12.55;;;;;;;18.82;93.71;101160.50;4982437;28;20384;-83
2021/08/20 10:11:47;;;;;;;15.63;13.60;;;;;;;18.91;95.43;101160.06;5015271;28;20100;-84
2021/08/20 10:14:12;;;;;;;16.50;13.50;;;;;;;18.98;94.41;101164.66;4982449;28;20092;-84
2021/08/20 10:16:39;;;;;;;15.50;12.60;;;;;;;19.05;93.99;101169.06;4984362;28;20046;-85
2021/08/20 10:19:07;;;;;;;16.52;12.73;;;;;;;19.06;93.72;101161.72;5002189;28;20053;-83
2021/08/20 10:21:36;;;;;;;17.20;12.75;;;;;;;19.02;93.19;101157.75;4985077;28;20066;-85
2021/08/20 10:24:02;;;;;;;17.08;13.70;;;;;;;19.05;95.54;101163.63;4985636;28;20042;-85
2021/08/20 10:26:29;;;;;;;16.35;12.57;;;;;;;19.17;92.59;101164.63;4984004;28;20050;-85
2021/08/20 10:28:56;;;;;;;16.30;13.07;;;;;;;19.28;93.27;101160.44;4965908;28;20752;-85
2021/08/20 10:31:23;;;;;;;15.85;11.95;;;;;;;19.33;91.75;101160.66;4983814;28;20158;-84
2021/08/20 10:33:48;;;;;;;16.73;13.68;;;;;;;19.48;94.17;101162.25;4986357;28;20050;-85
2021/08/20 10:36:14;;;;;;;15.55;13.65;;;;;;;19.41;91.14;101165.00;4985471;28;20054;-87
2021/08/20 10:38:40;;;;;;;15.95;13.70;;;;;;;19.37;91.29;101166.50;4984037;28;20054;-84
2021/08/20 10:41:07;;;;;;;17.85;13.45;;;;;;;19.54;92.23;101164.97;4984000;28;20265;-85
2021/08/20 10:44:14;;;;;;;14.95;11.85;;;;;;;19.54;90.41;101175.03;4983302;28;20038;-85
2021/08/20 10:46:39;;;;;;;14.20;12.70;;;;;;;19.59;91.35;101165.16;4976141;28;20055;-84
2021/08/20 10:49:11;;;;;;;16.20;13.25;;;;;;;19.69;91.18;101167.47;4967244;28;20064;-84
2021/08/20 10:51:56;;;;;;;15.50;12.27;;;;;;;19.80;90.80;101168.69;4966634;28;20106;-83
2021/08/20 10:54:31;;;;;;;15.25;13.13;;;;;;;19.70;89.47;101169.13;4967950;28;20066;-83
2021/08/20 10:57:29;;;;;;;12.45;10.93;;;;;;;19.88;87.92;101170.31;4968686;28;20047;-84
2021/08/20 10:59:55;;;;;;;15.02;11.15;;;;;;;19.91;86.50;101175.31;4953966;28;20042;-83